North Augusta, SC (29860)

9:48 AM EST on February 14, 2016 (GMT -0500)
Cottonwood Court | | Change Station
CLOSE
Current Station
Personal Weather Station
Location: North Augusta, SC
Elevation: 551 ft
Nearby Weather Stations

Elev 551 ft 33.58 °N, 81.95 °W | Updated 12 seconds ago

Partly Cloudy
Partly Cloudy
31.8 °F
Feels Like 32 °F
N
2.7
Wind Variable Wind from South

Today
High -- | Low -- °F
--% Chance of Precip.
Yesterday
High -- | Low -- °F
Precip. -- in
Pressure 30.48 in
Visibility 10.0 miles
Clouds Clear
Windchill 32 °F
Dew Point 7 °F
Humidity 34%
Rainfall 0.00 in
Snow Depth Not available.
7:13 AM 6:10 PM
Waxing Crescent, 42% visible
METAR KDNL 141353Z AUTO 09009KT 10SM CLR M01/M17 A3048 RMK AO2 SLP322 T10111172 TSNO
Pressure 30.48 in
Visibility 10.0 miles
Clouds Clear
Windchill 32 °F
Dew Point 7 °F
Humidity 34%
Rainfall 0.00 in
Snow Depth Not available.
7:13 AM 6:10 PM
Waxing Crescent, 42% visible
METAR KDNL 141353Z AUTO 09009KT 10SM CLR M01/M17 A3048 RMK AO2 SLP322 T10111172 TSNO

10-Day Weather Forecast

Almanac

Astronomy

Feb. 14, 2016 Rise Set
Actual Time
Civil Twilight
Nautical Twilight
Astronomical Twilight
Moon
Length of Visible Light
Length of Day
Tomorrow will be .
, % of the Moon is Illuminated

Today's Extremes

State Highs State Lows

Community

WunderPhotos

Upload Photos

1,892,781 photos uploaded!

WunderBlog® & News

Nearby

Air Quality

  Air Quality AQ Index Pollutant
Not available.

Snow Depth

Station Depth Elevation

Earthquake Activity

City Distance Mag. Time & Date
Minimum magnitude displayed is 2.5.

Coastal Water Temperatures

Place Temperature

Stations

Nearby Weather Stations

Station Location Temp. Windchill Dew Point Humidity Wind Precip. Elev Updated Type
                   

Watches & Warnings

There are currently no watches in effect.